Canoncito, NM

1:58 AM MST on December 09, 2016 (GMT -0700)
NM14 & Canoncito | | Change Station

Elev 6906 ft 35.13 °N, 106.37 °W | Updated 12 seconds ago

Clear
Clear
25.3 °F
Feels Like 25 °F
N
0.0
Wind Variable Wind from WSW
Gusts 6.0 mph

Today
High -- | Low -- °F
--% Chance of Precip.
Yesterday
High -- | Low -- °F
Precip. -- in
Pressure 30.40 in
Visibility 10.0 miles
Clouds Few 10000 ft
Windchill 25 °F
Dew Point 19 °F
Humidity 77%
Rainfall 0.00 in
Snow Depth Not available.
7:02 AM 4:53 PM
Waxing Gibbous, 72% visible
METAR KABQ 090852Z 14004KT 10SM FEW100 M03/M06 A3036 RMK AO2 SLP295 T10331061 58004
Pressure 30.40 in
Visibility 10.0 miles
Clouds Few 10000 ft
Windchill 25 °F
Dew Point 19 °F
Humidity 77%
Rainfall 0.00 in
Snow Depth Not available.
7:02 AM 4:53 PM
Waxing Gibbous, 72% visible
METAR KABQ 090852Z 14004KT 10SM FEW100 M03/M06 A3036 RMK AO2 SLP295 T10331061 58004

10-Day Weather Forecast

Almanac

Astronomy

Dec. 09, 2016 Rise Set
Actual Time
Civil Twilight
Nautical Twilight
Astronomical Twilight
Moon
Length of Visible Light
Length of Day
Tomorrow will be .
, % of the Moon is Illuminated

Today's Extremes

State Highs State Lows

Community

WunderPhotos

Upload Photos

1,956,371 photos uploaded!

WunderBlog® & News

Nearby

Air Quality

  Air Quality AQ Index Pollutant
Not available.

Snow Depth

Station Depth Elevation

Earthquake Activity

City Distance Mag. Time & Date
Minimum magnitude displayed is 2.5.

Coastal Water Temperatures

Place Temperature

Stations

Nearby Weather Stations

Station Location Temp. Windchill Dew Point Humidity Wind Precip. Elev Updated Type
                   

Watches & Warnings

There are currently no watches in effect.